sensor_id;sensor_type;location;lat;lon;timestamp;temperature;humidity
45233;DHT22;30969;51.052;17.056;2023-06-26T00:04:27;22.70;44.90
45233;DHT22;30969;51.052;17.056;2023-06-26T00:09:30;22.60;45.20
45233;DHT22;30969;51.052;17.056;2023-06-26T00:14:35;22.60;45.70
45233;DHT22;30969;51.052;17.056;2023-06-26T00:19:38;22.50;46.00
45233;DHT22;30969;51.052;17.056;2023-06-26T00:24:42;22.50;45.40
45233;DHT22;30969;51.052;17.056;2023-06-26T00:29:48;22.40;45.60
45233;DHT22;30969;51.052;17.056;2023-06-26T00:34:51;22.40;46.20
45233;DHT22;30969;51.052;17.056;2023-06-26T00:39:55;22.30;46.70
45233;DHT22;30969;51.052;17.056;2023-06-26T00:45:00;22.20;46.80
45233;DHT22;30969;51.052;17.056;2023-06-26T00:50:04;22.20;47.60
45233;DHT22;30969;51.052;17.056;2023-06-26T00:55:09;22.10;48.00
45233;DHT22;30969;51.052;17.056;2023-06-26T01:00:15;22.10;47.80
45233;DHT22;30969;51.052;17.056;2023-06-26T01:05:20;22.00;47.00
45233;DHT22;30969;51.052;17.056;2023-06-26T01:10:24;22.00;46.50
45233;DHT22;30969;51.052;17.056;2023-06-26T01:15:31;22.00;46.20
45233;DHT22;30969;51.052;17.056;2023-06-26T01:20:38;21.90;46.40
45233;DHT22;30969;51.052;17.056;2023-06-26T01:25:58;21.90;47.60
45233;DHT22;30969;51.052;17.056;2023-06-26T01:31:07;21.80;47.90
45233;DHT22;30969;51.052;17.056;2023-06-26T01:36:11;21.70;48.70
45233;DHT22;30969;51.052;17.056;2023-06-26T01:41:15;21.60;48.10
45233;DHT22;30969;51.052;17.056;2023-06-26T01:46:23;21.50;47.90
45233;DHT22;30969;51.052;17.056;2023-06-26T01:51:30;21.50;48.10
45233;DHT22;30969;51.052;17.056;2023-06-26T01:56:38;21.40;47.50
45233;DHT22;30969;51.052;17.056;2023-06-26T02:01:44;21.40;47.40
45233;DHT22;30969;51.052;17.056;2023-06-26T02:06:48;21.30;47.30
45233;DHT22;30969;51.052;17.056;2023-06-26T02:11:51;21.30;47.40
45233;DHT22;30969;51.052;17.056;2023-06-26T02:16:57;21.30;47.40
45233;DHT22;30969;51.052;17.056;2023-06-26T02:22:00;21.20;48.30
45233;DHT22;30969;51.052;17.056;2023-06-26T02:27:04;21.20;49.50
45233;DHT22;30969;51.052;17.056;2023-06-26T02:32:09;21.20;50.30
45233;DHT22;30969;51.052;17.056;2023-06-26T02:37:12;21.10;49.70
45233;DHT22;30969;51.052;17.056;2023-06-26T02:42:16;21.10;49.70
45233;DHT22;30969;51.052;17.056;2023-06-26T02:47:21;21.10;49.10
45233;DHT22;30969;51.052;17.056;2023-06-26T02:52:24;21.00;48.50
45233;DHT22;30969;51.052;17.056;2023-06-26T02:57:28;21.00;48.20
45233;DHT22;30969;51.052;17.056;2023-06-26T03:02:33;21.00;48.20
45233;DHT22;30969;51.052;17.056;2023-06-26T03:07:37;20.90;48.20
45233;DHT22;30969;51.052;17.056;2023-06-26T03:12:40;20.80;48.60
45233;DHT22;30969;51.052;17.056;2023-06-26T03:17:45;20.80;48.80
45233;DHT22;30969;51.052;17.056;2023-06-26T03:22:48;20.70;49.10
45233;DHT22;30969;51.052;17.056;2023-06-26T03:27:52;20.70;49.30
45233;DHT22;30969;51.052;17.056;2023-06-26T03:32:57;20.60;49.60
45233;DHT22;30969;51.052;17.056;2023-06-26T03:38:01;20.50;49.90
45233;DHT22;30969;51.052;17.056;2023-06-26T03:43:05;20.50;50.40
45233;DHT22;30969;51.052;17.056;2023-06-26T03:48:10;20.40;50.40
45233;DHT22;30969;51.052;17.056;2023-06-26T03:53:13;20.40;50.10
45233;DHT22;30969;51.052;17.056;2023-06-26T03:58:17;20.40;50.00
45233;DHT22;30969;51.052;17.056;2023-06-26T04:03:22;20.40;50.00
45233;DHT22;30969;51.052;17.056;2023-06-26T04:08:25;20.40;50.20
45233;DHT22;30969;51.052;17.056;2023-06-26T04:13:29;20.40;50.30
45233;DHT22;30969;51.052;17.056;2023-06-26T04:18:34;20.50;50.10
45233;DHT22;30969;51.052;17.056;2023-06-26T04:23:38;20.50;49.80
45233;DHT22;30969;51.052;17.056;2023-06-26T04:28:42;20.60;49.40
45233;DHT22;30969;51.052;17.056;2023-06-26T04:33:47;20.70;49.00
45233;DHT22;30969;51.052;17.056;2023-06-26T04:38:53;20.70;48.30
45233;DHT22;30969;51.052;17.056;2023-06-26T04:43:56;20.80;47.40
45233;DHT22;30969;51.052;17.056;2023-06-26T04:49:01;20.90;47.50
45233;DHT22;30969;51.052;17.056;2023-06-26T04:54:06;21.00;48.20
45233;DHT22;30969;51.052;17.056;2023-06-26T04:59:09;21.00;49.60
45233;DHT22;30969;51.052;17.056;2023-06-26T05:04:16;21.00;49.90
45233;DHT22;30969;51.052;17.056;2023-06-26T05:09:20;21.10;48.50
45233;DHT22;30969;51.052;17.056;2023-06-26T05:14:23;21.20;47.80
45233;DHT22;30969;51.052;17.056;2023-06-26T05:19:28;21.20;47.60
45233;DHT22;30969;51.052;17.056;2023-06-26T05:24:32;21.30;47.00
45233;DHT22;30969;51.052;17.056;2023-06-26T05:29:36;21.40;46.60
45233;DHT22;30969;51.052;17.056;2023-06-26T05:34:42;21.50;47.50
45233;DHT22;30969;51.052;17.056;2023-06-26T05:39:46;21.60;46.60
45233;DHT22;30969;51.052;17.056;2023-06-26T05:44:49;21.60;46.60
45233;DHT22;30969;51.052;17.056;2023-06-26T05:49:54;21.70;46.30
45233;DHT22;30969;51.052;17.056;2023-06-26T05:54:58;21.80;46.00
45233;DHT22;30969;51.052;17.056;2023-06-26T06:00:03;21.90;45.80
45233;DHT22;30969;51.052;17.056;2023-06-26T06:05:13;21.90;46.10
45233;DHT22;30969;51.052;17.056;2023-06-26T06:10:17;22.00;45.90
45233;DHT22;30969;51.052;17.056;2023-06-26T06:15:20;22.00;46.00
45233;DHT22;30969;51.052;17.056;2023-06-26T06:20:26;22.10;45.90
45233;DHT22;30969;51.052;17.056;2023-06-26T06:25:29;22.20;45.90
45233;DHT22;30969;51.052;17.056;2023-06-26T06:30:33;22.30;45.90
45233;DHT22;30969;51.052;17.056;2023-06-26T06:35:48;22.30;45.90
45233;DHT22;30969;51.052;17.056;2023-06-26T06:40:53;22.40;45.80
45233;DHT22;30969;51.052;17.056;2023-06-26T06:45:57;22.40;45.80
45233;DHT22;30969;51.052;17.056;2023-06-26T06:51:02;22.50;45.70
45233;DHT22;30969;51.052;17.056;2023-06-26T06:56:05;22.60;45.90
45233;DHT22;30969;51.052;17.056;2023-06-26T07:01:09;22.60;45.90
45233;DHT22;30969;51.052;17.056;2023-06-26T07:06:14;22.70;45.90
45233;DHT22;30969;51.052;17.056;2023-06-26T07:11:17;22.80;46.10
45233;DHT22;30969;51.052;17.056;2023-06-26T07:16:21;22.80;46.20
45233;DHT22;30969;51.052;17.056;2023-06-26T07:21:26;22.90;46.20
45233;DHT22;30969;51.052;17.056;2023-06-26T07:26:29;23.00;46.50
45233;DHT22;30969;51.052;17.056;2023-06-26T07:31:46;23.00;46.90
45233;DHT22;30969;51.052;17.056;2023-06-26T07:36:51;23.10;46.90
45233;DHT22;30969;51.052;17.056;2023-06-26T07:41:55;23.10;46.90
45233;DHT22;30969;51.052;17.056;2023-06-26T07:47:01;23.20;47.10
45233;DHT22;30969;51.052;17.056;2023-06-26T07:52:06;23.30;47.10
45233;DHT22;30969;51.052;17.056;2023-06-26T07:57:12;23.40;47.10
45233;DHT22;30969;51.052;17.056;2023-06-26T08:02:16;23.40;47.30
45233;DHT22;30969;51.052;17.056;2023-06-26T08:07:21;23.40;47.30
45233;DHT22;30969;51.052;17.056;2023-06-26T08:12:25;23.50;47.40
45233;DHT22;30969;51.052;17.056;2023-06-26T08:17:28;23.60;47.40
45233;DHT22;30969;51.052;17.056;2023-06-26T08:22:33;23.60;47.40
45233;DHT22;30969;51.052;17.056;2023-06-26T08:27:37;23.60;47.30
45233;DHT22;30969;51.052;17.056;2023-06-26T08:32:40;23.70;47.30
45233;DHT22;30969;51.052;17.056;2023-06-26T08:37:46;23.80;47.20
45233;DHT22;30969;51.052;17.056;2023-06-26T08:42:50;23.90;47.10
45233;DHT22;30969;51.052;17.056;2023-06-26T08:47:59;23.90;47.00
45233;DHT22;30969;51.052;17.056;2023-06-26T08:53:09;24.00;46.70
45233;DHT22;30969;51.052;17.056;2023-06-26T08:58:17;24.00;46.60
45233;DHT22;30969;51.052;17.056;2023-06-26T09:03:21;24.10;47.50
45233;DHT22;30969;51.052;17.056;2023-06-26T09:08:27;24.10;46.40
45233;DHT22;30969;51.052;17.056;2023-06-26T09:13:31;24.10;46.20
45233;DHT22;30969;51.052;17.056;2023-06-26T09:18:35;24.20;46.00
45233;DHT22;30969;51.052;17.056;2023-06-26T09:23:41;24.30;45.80
45233;DHT22;30969;51.052;17.056;2023-06-26T09:28:44;24.40;45.80
45233;DHT22;30969;51.052;17.056;2023-06-26T09:33:48;24.40;45.90
45233;DHT22;30969;51.052;17.056;2023-06-26T09:38:54;24.40;45.80
45233;DHT22;30969;51.052;17.056;2023-06-26T09:44:01;24.50;45.70
45233;DHT22;30969;51.052;17.056;2023-06-26T09:49:06;24.60;45.70
45233;DHT22;30969;51.052;17.056;2023-06-26T09:54:12;24.60;45.50
45233;DHT22;30969;51.052;17.056;2023-06-26T09:59:19;24.70;45.40
45233;DHT22;30969;51.052;17.056;2023-06-26T10:04:23;24.80;45.40
45233;DHT22;30969;51.052;17.056;2023-06-26T10:09:29;24.80;45.20
45233;DHT22;30969;51.052;17.056;2023-06-26T10:14:35;24.90;45.10
45233;DHT22;30969;51.052;17.056;2023-06-26T10:19:43;24.90;44.90
45233;DHT22;30969;51.052;17.056;2023-06-26T10:24:49;25.00;44.90
45233;DHT22;30969;51.052;17.056;2023-06-26T10:29:56;25.10;44.80
45233;DHT22;30969;51.052;17.056;2023-06-26T10:35:01;25.20;44.60
45233;DHT22;30969;51.052;17.056;2023-06-26T10:40:08;25.30;44.50
45233;DHT22;30969;51.052;17.056;2023-06-26T10:45:14;25.40;44.20
45233;DHT22;30969;51.052;17.056;2023-06-26T10:50:19;25.50;43.90
45233;DHT22;30969;51.052;17.056;2023-06-26T10:55:42;25.60;43.80
45233;DHT22;30969;51.052;17.056;2023-06-26T11:00:51;25.70;43.70
45233;DHT22;30969;51.052;17.056;2023-06-26T11:06:09;25.90;43.60
45233;DHT22;30969;51.052;17.056;2023-06-26T11:11:14;26.00;43.40
45233;DHT22;30969;51.052;17.056;2023-06-26T11:16:19;26.00;43.20
45233;DHT22;30969;51.052;17.056;2023-06-26T11:21:23;26.10;43.40
45233;DHT22;30969;51.052;17.056;2023-06-26T11:26:28;26.20;43.50
45233;DHT22;30969;51.052;17.056;2023-06-26T11:31:33;26.30;43.40
45233;DHT22;30969;51.052;17.056;2023-06-26T11:36:37;26.40;43.30
45233;DHT22;30969;51.052;17.056;2023-06-26T11:41:42;26.50;43.10
45233;DHT22;30969;51.052;17.056;2023-06-26T11:46:51;26.60;43.00
45233;DHT22;30969;51.052;17.056;2023-06-26T11:51:56;26.70;43.20
45233;DHT22;30969;51.052;17.056;2023-06-26T11:57:01;26.80;43.60
45233;DHT22;30969;51.052;17.056;2023-06-26T12:02:06;27.00;43.80
45233;DHT22;30969;51.052;17.056;2023-06-26T12:07:10;27.10;43.90
45233;DHT22;30969;51.052;17.056;2023-06-26T12:12:17;27.20;43.40
45233;DHT22;30969;51.052;17.056;2023-06-26T12:17:23;27.40;43.40
45233;DHT22;30969;51.052;17.056;2023-06-26T12:22:33;27.50;43.10
45233;DHT22;30969;51.052;17.056;2023-06-26T12:27:38;27.70;43.40
45233;DHT22;30969;51.052;17.056;2023-06-26T12:32:44;27.80;43.30
45233;DHT22;30969;51.052;17.056;2023-06-26T12:37:49;27.90;43.10
45233;DHT22;30969;51.052;17.056;2023-06-26T12:42:55;28.10;42.80
45233;DHT22;30969;51.052;17.056;2023-06-26T12:48:07;28.20;43.00
45233;DHT22;30969;51.052;17.056;2023-06-26T12:53:11;28.30;42.90
45233;DHT22;30969;51.052;17.056;2023-06-26T12:58:17;28.40;43.20
45233;DHT22;30969;51.052;17.056;2023-06-26T13:03:21;28.60;43.30
45233;DHT22;30969;51.052;17.056;2023-06-26T13:08:24;28.70;43.40
45233;DHT22;30969;51.052;17.056;2023-06-26T13:13:30;28.90;43.00
45233;DHT22;30969;51.052;17.056;2023-06-26T13:18:33;29.00;42.80
45233;DHT22;30969;51.052;17.056;2023-06-26T13:23:37;29.10;41.70
45233;DHT22;30969;51.052;17.056;2023-06-26T13:28:42;29.30;41.80
45233;DHT22;30969;51.052;17.056;2023-06-26T13:33:46;29.50;42.10
45233;DHT22;30969;51.052;17.056;2023-06-26T13:38:51;29.70;41.70
45233;DHT22;30969;51.052;17.056;2023-06-26T13:43:59;29.90;41.00
45233;DHT22;30969;51.052;17.056;2023-06-26T13:49:23;30.10;41.20
45233;DHT22;30969;51.052;17.056;2023-06-26T13:54:26;30.30;40.30
45233;DHT22;30969;51.052;17.056;2023-06-26T13:59:32;30.50;39.40
45233;DHT22;30969;51.052;17.056;2023-06-26T14:04:37;30.70;39.30
45233;DHT22;30969;51.052;17.056;2023-06-26T14:09:40;31.00;39.40
45233;DHT22;30969;51.052;17.056;2023-06-26T14:14:45;31.30;38.90
45233;DHT22;30969;51.052;17.056;2023-06-26T14:19:49;31.60;39.60
45233;DHT22;30969;51.052;17.056;2023-06-26T14:24:53;31.90;39.20
45233;DHT22;30969;51.052;17.056;2023-06-26T14:29:59;32.40;38.60
45233;DHT22;30969;51.052;17.056;2023-06-26T14:35:03;32.70;39.30
45233;DHT22;30969;51.052;17.056;2023-06-26T14:40:07;33.10;37.70
45233;DHT22;30969;51.052;17.056;2023-06-26T14:45:12;33.50;36.60
45233;DHT22;30969;51.052;17.056;2023-06-26T14:50:17;33.90;35.50
45233;DHT22;30969;51.052;17.056;2023-06-26T14:55:21;34.30;34.80
45233;DHT22;30969;51.052;17.056;2023-06-26T15:00:26;34.60;34.10
45233;DHT22;30969;51.052;17.056;2023-06-26T15:05:29;35.00;33.60
45233;DHT22;30969;51.052;17.056;2023-06-26T15:10:33;35.40;32.90
45233;DHT22;30969;51.052;17.056;2023-06-26T15:15:39;35.70;32.10
45233;DHT22;30969;51.052;17.056;2023-06-26T15:20:43;35.80;31.50
45233;DHT22;30969;51.052;17.056;2023-06-26T15:25:46;35.90;30.90
45233;DHT22;30969;51.052;17.056;2023-06-26T15:30:51;36.00;30.50
45233;DHT22;30969;51.052;17.056;2023-06-26T15:35:55;36.10;30.60
45233;DHT22;30969;51.052;17.056;2023-06-26T15:40:58;36.20;30.80
45233;DHT22;30969;51.052;17.056;2023-06-26T15:46:03;36.40;31.10
45233;DHT22;30969;51.052;17.056;2023-06-26T15:51:09;36.50;31.40
45233;DHT22;30969;51.052;17.056;2023-06-26T15:56:15;36.70;31.20
45233;DHT22;30969;51.052;17.056;2023-06-26T16:01:21;36.90;31.00
45233;DHT22;30969;51.052;17.056;2023-06-26T16:06:25;37.20;30.60
45233;DHT22;30969;51.052;17.056;2023-06-26T16:11:29;37.30;29.80
45233;DHT22;30969;51.052;17.056;2023-06-26T16:16:34;37.30;29.70
45233;DHT22;30969;51.052;17.056;2023-06-26T16:21:37;37.50;29.80
45233;DHT22;30969;51.052;17.056;2023-06-26T16:26:41;37.70;29.60
45233;DHT22;30969;51.052;17.056;2023-06-26T16:31:45;37.80;29.50
45233;DHT22;30969;51.052;17.056;2023-06-26T16:36:51;37.80;29.30
45233;DHT22;30969;51.052;17.056;2023-06-26T16:41:54;37.70;29.40
45233;DHT22;30969;51.052;17.056;2023-06-26T16:46:59;37.50;29.80
45233;DHT22;30969;51.052;17.056;2023-06-26T16:52:04;37.20;30.00
45233;DHT22;30969;51.052;17.056;2023-06-26T16:57:08;37.00;30.20
45233;DHT22;30969;51.052;17.056;2023-06-26T17:02:14;36.80;30.40
45233;DHT22;30969;51.052;17.056;2023-06-26T17:07:17;36.50;30.60
45233;DHT22;30969;51.052;17.056;2023-06-26T17:12:21;36.00;30.60
45233;DHT22;30969;51.052;17.056;2023-06-26T17:17:29;35.50;30.80
45233;DHT22;30969;51.052;17.056;2023-06-26T17:22:33;34.90;30.90
45233;DHT22;30969;51.052;17.056;2023-06-26T17:27:36;34.40;31.60
45233;DHT22;30969;51.052;17.056;2023-06-26T17:32:41;34.00;32.40
45233;DHT22;30969;51.052;17.056;2023-06-26T17:37:45;33.60;32.90
45233;DHT22;30969;51.052;17.056;2023-06-26T17:42:48;33.30;33.60
45233;DHT22;30969;51.052;17.056;2023-06-26T17:47:53;33.00;33.90
45233;DHT22;30969;51.052;17.056;2023-06-26T17:52:57;32.70;34.50
45233;DHT22;30969;51.052;17.056;2023-06-26T17:58:01;32.50;35.00
45233;DHT22;30969;51.052;17.056;2023-06-26T18:03:06;32.20;35.30
45233;DHT22;30969;51.052;17.056;2023-06-26T18:08:10;31.90;35.60
45233;DHT22;30969;51.052;17.056;2023-06-26T18:13:14;31.70;36.10
45233;DHT22;30969;51.052;17.056;2023-06-26T18:18:19;31.50;36.40
45233;DHT22;30969;51.052;17.056;2023-06-26T18:23:23;31.30;36.80
45233;DHT22;30969;51.052;17.056;2023-06-26T18:28:27;31.10;37.10
45233;DHT22;30969;51.052;17.056;2023-06-26T18:33:33;30.90;37.30
45233;DHT22;30969;51.052;17.056;2023-06-26T18:38:36;30.80;37.60
45233;DHT22;30969;51.052;17.056;2023-06-26T18:43:40;30.60;37.70
45233;DHT22;30969;51.052;17.056;2023-06-26T18:48:47;30.50;37.90
45233;DHT22;30969;51.052;17.056;2023-06-26T18:53:50;30.40;38.00
45233;DHT22;30969;51.052;17.056;2023-06-26T18:58:54;30.30;38.30
45233;DHT22;30969;51.052;17.056;2023-06-26T19:03:59;30.10;38.60
45233;DHT22;30969;51.052;17.056;2023-06-26T19:09:03;30.00;39.00
45233;DHT22;30969;51.052;17.056;2023-06-26T19:14:06;29.80;39.30
45233;DHT22;30969;51.052;17.056;2023-06-26T19:19:14;29.60;39.50
45233;DHT22;30969;51.052;17.056;2023-06-26T19:24:17;29.40;39.60
45233;DHT22;30969;51.052;17.056;2023-06-26T19:29:21;29.20;39.90
45233;DHT22;30969;51.052;17.056;2023-06-26T19:34:26;29.00;40.20
45233;DHT22;30969;51.052;17.056;2023-06-26T19:39:29;28.90;40.40
45233;DHT22;30969;51.052;17.056;2023-06-26T19:44:33;28.70;40.70
45233;DHT22;30969;51.052;17.056;2023-06-26T19:49:38;28.50;41.10
45233;DHT22;30969;51.052;17.056;2023-06-26T19:54:42;28.30;41.50
45233;DHT22;30969;51.052;17.056;2023-06-26T19:59:45;28.20;42.00
45233;DHT22;30969;51.052;17.056;2023-06-26T20:04:51;27.90;42.60
45233;DHT22;30969;51.052;17.056;2023-06-26T20:09:55;27.80;43.90
45233;DHT22;30969;51.052;17.056;2023-06-26T20:14:58;27.40;50.20
45233;DHT22;30969;51.052;17.056;2023-06-26T20:20:05;26.80;53.70
45233;DHT22;30969;51.052;17.056;2023-06-26T20:25:09;26.30;56.40
45233;DHT22;30969;51.052;17.056;2023-06-26T20:30:12;25.70;57.90
45233;DHT22;30969;51.052;17.056;2023-06-26T20:35:17;25.30;58.90
45233;DHT22;30969;51.052;17.056;2023-06-26T20:40:22;25.00;60.20
45233;DHT22;30969;51.052;17.056;2023-06-26T20:45:26;24.70;61.80
45233;DHT22;30969;51.052;17.056;2023-06-26T20:50:32;24.40;62.60
45233;DHT22;30969;51.052;17.056;2023-06-26T20:55:36;24.30;62.80
45233;DHT22;30969;51.052;17.056;2023-06-26T21:00:40;24.10;63.40
45233;DHT22;30969;51.052;17.056;2023-06-26T21:05:45;24.10;62.90
45233;DHT22;30969;51.052;17.056;2023-06-26T21:10:49;24.00;62.90
45233;DHT22;30969;51.052;17.056;2023-06-26T21:15:53;23.90;63.00
45233;DHT22;30969;51.052;17.056;2023-06-26T21:20:59;23.90;63.10
45233;DHT22;30969;51.052;17.056;2023-06-26T21:26:03;23.80;62.90
45233;DHT22;30969;51.052;17.056;2023-06-26T21:31:06;23.80;63.60
45233;DHT22;30969;51.052;17.056;2023-06-26T21:36:12;23.70;64.80
45233;DHT22;30969;51.052;17.056;2023-06-26T21:41:15;23.60;65.10
45233;DHT22;30969;51.052;17.056;2023-06-26T21:46:19;23.60;64.80
45233;DHT22;30969;51.052;17.056;2023-06-26T21:51:24;23.50;65.30
45233;DHT22;30969;51.052;17.056;2023-06-26T21:56:27;23.50;66.00
45233;DHT22;30969;51.052;17.056;2023-06-26T22:01:31;23.50;67.40
45233;DHT22;30969;51.052;17.056;2023-06-26T22:06:37;23.40;67.90
45233;DHT22;30969;51.052;17.056;2023-06-26T22:11:40;23.30;67.60
45233;DHT22;30969;51.052;17.056;2023-06-26T22:16:44;23.30;67.30
45233;DHT22;30969;51.052;17.056;2023-06-26T22:21:49;23.20;67.50
45233;DHT22;30969;51.052;17.056;2023-06-26T22:26:52;23.20;67.70
45233;DHT22;30969;51.052;17.056;2023-06-26T22:31:55;23.10;67.00
45233;DHT22;30969;51.052;17.056;2023-06-26T22:37:02;23.10;67.30
45233;DHT22;30969;51.052;17.056;2023-06-26T22:42:06;23.10;67.40
45233;DHT22;30969;51.052;17.056;2023-06-26T22:47:12;23.10;67.90
45233;DHT22;30969;51.052;17.056;2023-06-26T22:52:17;23.00;67.20
45233;DHT22;30969;51.052;17.056;2023-06-26T22:57:20;23.00;67.00
45233;DHT22;30969;51.052;17.056;2023-06-26T23:02:24;22.90;67.30
45233;DHT22;30969;51.052;17.056;2023-06-26T23:07:30;22.90;67.40
45233;DHT22;30969;51.052;17.056;2023-06-26T23:12:38;22.90;68.30
45233;DHT22;30969;51.052;17.056;2023-06-26T23:17:42;22.90;68.80
45233;DHT22;30969;51.052;17.056;2023-06-26T23:22:48;22.80;69.50
45233;DHT22;30969;51.052;17.056;2023-06-26T23:27:52;22.70;69.80
45233;DHT22;30969;51.052;17.056;2023-06-26T23:33:03;22.70;69.60
45233;DHT22;30969;51.052;17.056;2023-06-26T23:38:09;22.70;69.10
45233;DHT22;30969;51.052;17.056;2023-06-26T23:43:13;22.60;69.30
45233;DHT22;30969;51.052;17.056;2023-06-26T23:48:18;22.60;69.60
45233;DHT22;30969;51.052;17.056;2023-06-26T23:53:23;22.60;69.80
45233;DHT22;30969;51.052;17.056;2023-06-26T23:58:27;22.60;70.20
